sensor_id;sensor_type;location;lat;lon;timestamp;pressure;altitude;pressure_sealevel;temperature;humidity
10638;BME280;47007;49.252;8.904;2022-12-29T00:00:16;99186.22;;;11.27;100.00
10638;BME280;47007;49.252;8.904;2022-12-29T00:01:01;99197.03;;;11.32;100.00
10638;BME280;47007;49.252;8.904;2022-12-29T00:01:43;99186.84;;;11.42;100.00
10638;BME280;47007;49.252;8.904;2022-12-29T00:02:24;99175.63;;;11.40;100.00
10638;BME280;47007;49.252;8.904;2022-12-29T00:03:06;99191.13;;;11.56;100.00
10638;BME280;47007;49.252;8.904;2022-12-29T00:03:50;99170.72;;;11.43;100.00
10638;BME280;47007;49.252;8.904;2022-12-29T00:04:32;99188.69;;;11.61;100.00
10638;BME280;47007;49.252;8.904;2022-12-29T00:05:14;99173.78;;;11.60;100.00
10638;BME280;47007;49.252;8.904;2022-12-29T00:05:56;99176.00;;;11.63;100.00
10638;BME280;47007;49.252;8.904;2022-12-29T00:06:38;99193.38;;;11.59;100.00
10638;BME280;47007;49.252;8.904;2022-12-29T00:07:20;99183.16;;;11.56;100.00
10638;BME280;47007;49.252;8.904;2022-12-29T00:08:02;99192.78;;;11.57;100.00
10638;BME280;47007;49.252;8.904;2022-12-29T00:08:43;99195.03;;;11.60;100.00
10638;BME280;47007;49.252;8.904;2022-12-29T00:09:25;99189.50;;;11.62;100.00
10638;BME280;47007;49.252;8.904;2022-12-29T00:10:07;99185.00;;;11.62;100.00
10638;BME280;47007;49.252;8.904;2022-12-29T00:10:49;99177.03;;;11.62;100.00
10638;BME280;47007;49.252;8.904;2022-12-29T00:11:31;99187.25;;;11.59;100.00
10638;BME280;47007;49.252;8.904;2022-12-29T00:12:12;99188.69;;;11.61;100.00
10638;BME280;47007;49.252;8.904;2022-12-29T00:12:54;99190.72;;;11.66;100.00
10638;BME280;47007;49.252;8.904;2022-12-29T00:13:54;99178.66;;;11.63;100.00
10638;BME280;47007;49.252;8.904;2022-12-29T00:15:06;99157.66;;;11.55;100.00
10638;BME280;47007;49.252;8.904;2022-12-29T00:16:07;99167.66;;;11.60;100.00
10638;BME280;47007;49.252;8.904;2022-12-29T00:16:49;99128.28;;;11.37;100.00
10638;BME280;47007;49.252;8.904;2022-12-29T00:17:32;99154.38;;;11.53;100.00
10638;BME280;47007;49.252;8.904;2022-12-29T00:18:13;99171.94;;;11.67;100.00
10638;BME280;47007;49.252;8.904;2022-12-29T00:18:55;99179.69;;;11.62;100.00
10638;BME280;47007;49.252;8.904;2022-12-29T00:19:37;99150.50;;;11.56;100.00
10638;BME280;47007;49.252;8.904;2022-12-29T00:20:37;99185.84;;;11.82;100.00
10638;BME280;47007;49.252;8.904;2022-12-29T00:21:37;99184.19;;;11.88;100.00
10638;BME280;47007;49.252;8.904;2022-12-29T00:22:38;99176.81;;;11.90;100.00
10638;BME280;47007;49.252;8.904;2022-12-29T00:23:38;99176.41;;;11.93;100.00
10638;BME280;47007;49.252;8.904;2022-12-29T00:24:38;99152.75;;;11.78;100.00
10638;BME280;47007;49.252;8.904;2022-12-29T00:25:35;99137.44;;;11.61;100.00
10638;BME280;47007;49.252;8.904;2022-12-29T00:26:36;99181.13;;;11.91;100.00
10638;BME280;47007;49.252;8.904;2022-12-29T00:27:36;99174.16;;;11.90;100.00
10638;BME280;47007;49.252;8.904;2022-12-29T00:28:42;99176.63;;;11.92;100.00
10638;BME280;47007;49.252;8.904;2022-12-29T00:29:42;99176.63;;;11.92;100.00
10638;BME280;47007;49.252;8.904;2022-12-29T00:30:43;99165.59;;;11.88;100.00
10638;BME280;47007;49.252;8.904;2022-12-29T00:31:43;99175.19;;;11.89;100.00
10638;BME280;47007;49.252;8.904;2022-12-29T00:32:43;99191.75;;;11.98;100.00
10638;BME280;47007;49.252;8.904;2022-12-29T00:33:44;99178.47;;;11.98;100.00
10638;BME280;47007;49.252;8.904;2022-12-29T00:34:44;99152.53;;;11.80;100.00
10638;BME280;47007;49.252;8.904;2022-12-29T00:36:05;99164.78;;;11.87;100.00
10638;BME280;47007;49.252;8.904;2022-12-29T00:36:50;99182.97;;;11.97;100.00
10638;BME280;47007;49.252;8.904;2022-12-29T00:37:32;99188.66;;;12.01;100.00
10638;BME280;47007;49.252;8.904;2022-12-29T00:38:35;99186.41;;;12.04;100.00
10638;BME280;47007;49.252;8.904;2022-12-29T00:39:36;99177.66;;;11.97;100.00
10638;BME280;47007;49.252;8.904;2022-12-29T00:40:36;99180.09;;;11.99;100.00
10638;BME280;47007;49.252;8.904;2022-12-29T00:41:37;99190.72;;;11.99;100.00
10638;BME280;47007;49.252;8.904;2022-12-29T00:42:38;99183.97;;;11.96;100.00
10638;BME280;47007;49.252;8.904;2022-12-29T00:43:39;99191.94;;;11.96;100.00
10638;BME280;47007;49.252;8.904;2022-12-29T00:44:40;99184.38;;;11.93;100.00
10638;BME280;47007;49.252;8.904;2022-12-29T00:45:23;99181.72;;;11.93;100.00
10638;BME280;47007;49.252;8.904;2022-12-29T00:46:05;99191.53;;;11.93;100.00
10638;BME280;47007;49.252;8.904;2022-12-29T00:46:47;99179.47;;;11.90;100.00
10638;BME280;47007;49.252;8.904;2022-12-29T00:47:29;99175.00;;;11.91;100.00
10638;BME280;47007;49.252;8.904;2022-12-29T00:48:10;99122.16;;;11.49;100.00
10638;BME280;47007;49.252;8.904;2022-12-29T00:48:52;99108.88;;;11.43;100.00
10638;BME280;47007;49.252;8.904;2022-12-29T00:49:52;99190.31;;;11.88;100.00
10638;BME280;47007;49.252;8.904;2022-12-29T00:50:35;99177.88;;;11.82;100.00
10638;BME280;47007;49.252;8.904;2022-12-29T00:51:17;99181.16;;;11.84;100.00
10638;BME280;47007;49.252;8.904;2022-12-29T00:52:07;99185.00;;;11.88;100.00
10638;BME280;47007;49.252;8.904;2022-12-29T00:52:49;99172.75;;;11.87;100.00
10638;BME280;47007;49.252;8.904;2022-12-29T00:53:30;99178.66;;;11.90;100.00
10638;BME280;47007;49.252;8.904;2022-12-29T00:54:13;99180.91;;;11.93;100.00
10638;BME280;47007;49.252;8.904;2022-12-29T00:54:58;99178.47;;;11.91;100.00
10638;BME280;47007;49.252;8.904;2022-12-29T00:55:39;99169.09;;;11.82;100.00
10638;BME280;47007;49.252;8.904;2022-12-29T00:56:21;99178.66;;;11.90;100.00
10638;BME280;47007;49.252;8.904;2022-12-29T00:57:04;99181.72;;;11.93;100.00
10638;BME280;47007;49.252;8.904;2022-12-29T00:57:46;99178.88;;;11.95;100.00
10638;BME280;47007;49.252;8.904;2022-12-29T00:58:28;99171.09;;;11.93;100.00
10638;BME280;47007;49.252;8.904;2022-12-29T00:59:10;99188.88;;;11.93;100.00
10638;BME280;47007;49.252;8.904;2022-12-29T00:59:52;99188.28;;;11.91;100.00
10638;BME280;47007;49.252;8.904;2022-12-29T01:00:34;99179.28;;;11.92;100.00
10638;BME280;47007;49.252;8.904;2022-12-29T01:01:16;99209.53;;;11.97;100.00
10638;BME280;47007;49.252;8.904;2022-12-29T01:01:58;99212.97;;;12.11;100.00
10638;BME280;47007;49.252;8.904;2022-12-29T01:02:42;99206.59;;;12.18;100.00
10638;BME280;47007;49.252;8.904;2022-12-29T01:03:24;99174.56;;;11.87;100.00
10638;BME280;47007;49.252;8.904;2022-12-29T01:04:07;99194.53;;;12.22;100.00
10638;BME280;47007;49.252;8.904;2022-12-29T01:04:49;99216.19;;;12.33;100.00
10638;BME280;47007;49.252;8.904;2022-12-29T01:05:31;99197.97;;;12.30;100.00
10638;BME280;47007;49.252;8.904;2022-12-29T01:06:14;99211.47;;;12.28;100.00
10638;BME280;47007;49.252;8.904;2022-12-29T01:06:56;99205.38;;;12.21;100.00
10638;BME280;47007;49.252;8.904;2022-12-29T01:07:37;99212.50;;;12.27;100.00
10638;BME280;47007;49.252;8.904;2022-12-29T01:08:19;99199.22;;;12.27;100.00
10638;BME280;47007;49.252;8.904;2022-12-29T01:09:01;99196.34;;;12.29;100.00
10638;BME280;47007;49.252;8.904;2022-12-29T01:10:01;99206.16;;;12.28;100.00
10638;BME280;47007;49.252;8.904;2022-12-29T01:11:44;99223.34;;;12.32;100.00
10638;BME280;47007;49.252;8.904;2022-12-29T01:12:26;99210.44;;;12.36;100.00
10638;BME280;47007;49.252;8.904;2022-12-29T01:13:24;99209.41;;;12.37;100.00
10638;BME280;47007;49.252;8.904;2022-12-29T01:14:06;99217.16;;;12.45;100.00
10638;BME280;47007;49.252;8.904;2022-12-29T01:14:48;99216.94;;;12.46;100.00
10638;BME280;47007;49.252;8.904;2022-12-29T01:15:29;99213.06;;;12.42;100.00
10638;BME280;47007;49.252;8.904;2022-12-29T01:16:11;99209.38;;;12.43;100.00
10638;BME280;47007;49.252;8.904;2022-12-29T01:16:54;99223.50;;;12.44;100.00
10638;BME280;47007;49.252;8.904;2022-12-29T01:17:38;99200.41;;;12.38;100.00
10638;BME280;47007;49.252;8.904;2022-12-29T01:18:21;99200.81;;;12.41;100.00
10638;BME280;47007;49.252;8.904;2022-12-29T01:19:03;99232.28;;;12.44;100.00
10638;BME280;47007;49.252;8.904;2022-12-29T01:19:47;99225.94;;;12.45;100.00
10638;BME280;47007;49.252;8.904;2022-12-29T01:20:29;99215.53;;;12.44;100.00
10638;BME280;47007;49.252;8.904;2022-12-29T01:21:10;99195.31;;;12.36;100.00
10638;BME280;47007;49.252;8.904;2022-12-29T01:21:54;99206.97;;;12.35;100.00
10638;BME280;47007;49.252;8.904;2022-12-29T01:22:36;99197.38;;;12.34;100.00
10638;BME280;47007;49.252;8.904;2022-12-29T01:23:18;99218.81;;;12.39;100.00
10638;BME280;47007;49.252;8.904;2022-12-29T01:23:59;99213.94;;;12.36;100.00
10638;BME280;47007;49.252;8.904;2022-12-29T01:24:41;99201.25;;;12.32;100.00
10638;BME280;47007;49.252;8.904;2022-12-29T01:25:23;99212.91;;;12.24;100.00
10638;BME280;47007;49.252;8.904;2022-12-29T01:26:12;99210.25;;;12.24;100.00
10638;BME280;47007;49.252;8.904;2022-12-29T01:26:54;99212.53;;;12.20;100.00
10638;BME280;47007;49.252;8.904;2022-12-29T01:27:36;99219.47;;;12.15;100.00
10638;BME280;47007;49.252;8.904;2022-12-29T01:28:18;99178.25;;;11.93;100.00
10638;BME280;47007;49.252;8.904;2022-12-29T01:29:06;99213.16;;;12.16;100.00
10638;BME280;47007;49.252;8.904;2022-12-29T01:29:48;99195.19;;;12.05;100.00
10638;BME280;47007;49.252;8.904;2022-12-29T01:30:29;99195.19;;;12.05;100.00
10638;BME280;47007;49.252;8.904;2022-12-29T01:31:13;99204.00;;;11.99;100.00
10638;BME280;47007;49.252;8.904;2022-12-29T01:31:55;99188.28;;;11.91;100.00
10638;BME280;47007;49.252;8.904;2022-12-29T01:32:37;99179.31;;;11.85;100.00
10638;BME280;47007;49.252;8.904;2022-12-29T01:33:18;99143.16;;;11.51;100.00
10638;BME280;47007;49.252;8.904;2022-12-29T01:34:00;99111.53;;;11.43;100.00
10638;BME280;47007;49.252;8.904;2022-12-29T01:34:42;99166.22;;;11.64;100.00
10638;BME280;47007;49.252;8.904;2022-12-29T01:35:23;99176.22;;;11.68;100.00
10638;BME280;47007;49.252;8.904;2022-12-29T01:36:11;99191.13;;;11.76;100.00
10638;BME280;47007;49.252;8.904;2022-12-29T01:36:53;99170.91;;;11.68;100.00
10638;BME280;47007;49.252;8.904;2022-12-29T01:37:34;99167.84;;;11.65;100.00
10638;BME280;47007;49.252;8.904;2022-12-29T01:38:18;99184.19;;;11.68;100.00
10638;BME280;47007;49.252;8.904;2022-12-29T01:39:03;99150.09;;;11.52;100.00
10638;BME280;47007;49.252;8.904;2022-12-29T01:39:44;99181.13;;;11.65;100.00
10638;BME280;47007;49.252;8.904;2022-12-29T01:40:26;99171.53;;;11.57;100.00
10638;BME280;47007;49.252;8.904;2022-12-29T01:41:11;99178.28;;;11.60;100.00
10638;BME280;47007;49.252;8.904;2022-12-29T01:41:53;99172.75;;;11.55;100.00
10638;BME280;47007;49.252;8.904;2022-12-29T01:42:35;99163.78;;;11.56;100.00
10638;BME280;47007;49.252;8.904;2022-12-29T01:43:16;99178.88;;;11.55;100.00
10638;BME280;47007;49.252;8.904;2022-12-29T01:44:00;99127.84;;;11.27;100.00
10638;BME280;47007;49.252;8.904;2022-12-29T01:44:51;99186.03;;;11.55;100.00
10638;BME280;47007;49.252;8.904;2022-12-29T01:45:34;99173.56;;;11.55;100.00
10638;BME280;47007;49.252;8.904;2022-12-29T01:47:33;99164.19;;;11.52;100.00
10638;BME280;47007;49.252;8.904;2022-12-29T01:48:17;99153.59;;;11.46;100.00
10638;BME280;47007;49.252;8.904;2022-12-29T01:49:21;99174.59;;;11.54;100.00
10638;BME280;47007;49.252;8.904;2022-12-29T01:50:22;99176.63;;;11.52;100.00
10638;BME280;47007;49.252;8.904;2022-12-29T01:51:06;99124.63;;;11.25;100.00
10638;BME280;47007;49.252;8.904;2022-12-29T01:51:54;99183.38;;;11.61;100.00
10638;BME280;47007;49.252;8.904;2022-12-29T01:52:43;99142.38;;;11.37;100.00
10638;BME280;47007;49.252;8.904;2022-12-29T01:53:30;99170.69;;;11.63;100.00
10638;BME280;47007;49.252;8.904;2022-12-29T01:54:23;99187.66;;;11.62;100.00
10638;BME280;47007;49.252;8.904;2022-12-29T01:55:09;99176.44;;;11.53;100.00
10638;BME280;47007;49.252;8.904;2022-12-29T01:55:58;99182.78;;;11.59;100.00
10638;BME280;47007;49.252;8.904;2022-12-29T01:56:43;99191.94;;;11.63;100.00
10638;BME280;47007;49.252;8.904;2022-12-29T01:57:29;99053.38;;;10.89;100.00
10638;BME280;47007;49.252;8.904;2022-12-29T01:58:17;99171.97;;;11.47;100.00
10638;BME280;47007;49.252;8.904;2022-12-29T01:59:04;99187.47;;;11.57;100.00
10638;BME280;47007;49.252;8.904;2022-12-29T02:00:06;99165.22;;;11.45;100.00
10638;BME280;47007;49.252;8.904;2022-12-29T02:00:55;99165.00;;;11.46;100.00
10638;BME280;47007;49.252;8.904;2022-12-29T02:01:37;99181.34;;;11.57;100.00
10638;BME280;47007;49.252;8.904;2022-12-29T02:02:20;99159.28;;;11.43;100.00
10638;BME280;47007;49.252;8.904;2022-12-29T02:03:02;99174.59;;;11.54;100.00
10638;BME280;47007;49.252;8.904;2022-12-29T02:03:45;99165.63;;;11.48;100.00
10638;BME280;47007;49.252;8.904;2022-12-29T02:04:30;99174.78;;;11.52;100.00
10638;BME280;47007;49.252;8.904;2022-12-29T02:06:25;99173.97;;;11.52;100.00
10638;BME280;47007;49.252;8.904;2022-12-29T02:07:13;99183.56;;;11.53;100.00
10638;BME280;47007;49.252;8.904;2022-12-29T02:07:56;99171.75;;;11.49;100.00
10638;BME280;47007;49.252;8.904;2022-12-29T02:08:39;99129.50;;;11.21;100.00
10638;BME280;47007;49.252;8.904;2022-12-29T02:09:22;99176.84;;;11.50;100.00
10638;BME280;47007;49.252;8.904;2022-12-29T02:10:05;99180.75;;;11.48;100.00
10638;BME280;47007;49.252;8.904;2022-12-29T02:10:47;99188.69;;;11.48;100.00
10638;BME280;47007;49.252;8.904;2022-12-29T02:11:30;99174.63;;;11.47;100.00
10638;BME280;47007;49.252;8.904;2022-12-29T02:12:13;99179.50;;;11.44;100.00
10638;BME280;47007;49.252;8.904;2022-12-29T02:12:54;99187.06;;;11.47;100.00
10638;BME280;47007;49.252;8.904;2022-12-29T02:13:37;99185.03;;;11.49;100.00
10638;BME280;47007;49.252;8.904;2022-12-29T02:14:19;99191.94;;;11.50;100.00
10638;BME280;47007;49.252;8.904;2022-12-29T02:15:04;99181.53;;;11.42;100.00
10638;BME280;47007;49.252;8.904;2022-12-29T02:17:12;99173.19;;;11.45;100.00
10638;BME280;47007;49.252;8.904;2022-12-29T02:18:15;99181.34;;;11.43;100.00
10638;BME280;47007;49.252;8.904;2022-12-29T02:20:25;99172.56;;;11.36;100.00
10638;BME280;47007;49.252;8.904;2022-12-29T02:23:24;99173.56;;;11.29;100.00
10638;BME280;47007;49.252;8.904;2022-12-29T02:25:19;99177.66;;;11.25;100.00
10638;BME280;47007;49.252;8.904;2022-12-29T02:31:35;99160.50;;;11.14;100.00
10638;BME280;47007;49.252;8.904;2022-12-29T02:37:16;99149.50;;;11.17;100.00
10638;BME280;47007;49.252;8.904;2022-12-29T02:39:26;99160.28;;;11.15;100.00
10638;BME280;47007;49.252;8.904;2022-12-29T02:41:16;99163.78;;;11.16;100.00
10638;BME280;47007;49.252;8.904;2022-12-29T02:42:14;99164.78;;;11.15;100.00
10638;BME280;47007;49.252;8.904;2022-12-29T02:43:07;99152.16;;;11.10;100.00
10638;BME280;47007;49.252;8.904;2022-12-29T02:44:04;99143.56;;;11.08;100.00
10638;BME280;47007;49.252;8.904;2022-12-29T02:45:02;99162.97;;;11.09;100.00
10638;BME280;47007;49.252;8.904;2022-12-29T02:45:54;99159.47;;;11.15;100.00
10638;BME280;47007;49.252;8.904;2022-12-29T02:46:47;99086.22;;;10.61;100.00
10638;BME280;47007;49.252;8.904;2022-12-29T02:49:05;99167.03;;;11.18;100.00
10638;BME280;47007;49.252;8.904;2022-12-29T02:49:54;99162.34;;;11.20;100.00
10638;BME280;47007;49.252;8.904;2022-12-29T02:50:43;99170.13;;;11.22;100.00
10638;BME280;47007;49.252;8.904;2022-12-29T02:52:04;99164.59;;;11.23;100.00
10638;BME280;47007;49.252;8.904;2022-12-29T02:52:51;99172.38;;;11.25;100.00
10638;BME280;47007;49.252;8.904;2022-12-29T02:53:35;99156.44;;;11.31;100.00
10638;BME280;47007;49.252;8.904;2022-12-29T02:54:36;99173.78;;;11.34;100.00
10638;BME280;47007;49.252;8.904;2022-12-29T02:55:26;99169.69;;;11.31;100.00
10638;BME280;47007;49.252;8.904;2022-12-29T02:56:08;99156.84;;;11.35;100.00
10638;BME280;47007;49.252;8.904;2022-12-29T02:56:49;99162.56;;;11.32;100.00
10638;BME280;47007;49.252;8.904;2022-12-29T02:57:34;99173.97;;;11.39;100.00
10638;BME280;47007;49.252;8.904;2022-12-29T02:58:20;99160.13;;;11.37;100.00
10638;BME280;47007;49.252;8.904;2022-12-29T02:59:03;99155.03;;;11.35;100.00
10638;BME280;47007;49.252;8.904;2022-12-29T02:59:49;99166.84;;;11.39;100.00
10638;BME280;47007;49.252;8.904;2022-12-29T03:00:36;99156.84;;;11.41;100.00
10638;BME280;47007;49.252;8.904;2022-12-29T03:01:44;99156.03;;;11.47;100.00
10638;BME280;47007;49.252;8.904;2022-12-29T03:02:58;99156.84;;;11.48;100.00
10638;BME280;47007;49.252;8.904;2022-12-29T03:04:41;99148.28;;;11.46;100.00
10638;BME280;47007;49.252;8.904;2022-12-29T03:07:22;99148.25;;;11.39;100.00
10638;BME280;47007;49.252;8.904;2022-12-29T03:09:36;99149.69;;;11.29;100.00
10638;BME280;47007;49.252;8.904;2022-12-29T03:10:32;99161.53;;;11.46;100.00
10638;BME280;47007;49.252;8.904;2022-12-29T03:11:17;99168.69;;;11.45;100.00
10638;BME280;47007;49.252;8.904;2022-12-29T03:13:44;99153.97;;;11.43;100.00
10638;BME280;47007;49.252;8.904;2022-12-29T03:15:03;99123.56;;;11.26;100.00
10638;BME280;47007;49.252;8.904;2022-12-29T03:16:27;99149.09;;;11.40;100.00
10638;BME280;47007;49.252;8.904;2022-12-29T03:17:26;99160.13;;;11.37;100.00
10638;BME280;47007;49.252;8.904;2022-12-29T03:18:24;99147.25;;;11.34;100.00
10638;BME280;47007;49.252;8.904;2022-12-29T03:20:06;99140.50;;;11.38;100.00
10638;BME280;47007;49.252;8.904;2022-12-29T03:20:59;99135.00;;;11.26;100.00
10638;BME280;47007;49.252;8.904;2022-12-29T03:21:50;99137.03;;;11.31;100.00
10638;BME280;47007;49.252;8.904;2022-12-29T03:23:00;99154.38;;;11.27;100.00
10638;BME280;47007;49.252;8.904;2022-12-29T03:23:47;99119.06;;;11.13;100.00
10638;BME280;47007;49.252;8.904;2022-12-29T03:24:35;99136.44;;;11.22;100.00
10638;BME280;47007;49.252;8.904;2022-12-29T03:25:36;99127.84;;;11.13;100.00
10638;BME280;47007;49.252;8.904;2022-12-29T03:26:23;99150.94;;;11.20;100.00
10638;BME280;47007;49.252;8.904;2022-12-29T03:27:07;99126.25;;;11.12;100.00
10638;BME280;47007;49.252;8.904;2022-12-29T03:28:01;99128.06;;;11.19;100.00
10638;BME280;47007;49.252;8.904;2022-12-29T03:28:50;99137.66;;;11.20;100.00
10638;BME280;47007;49.252;8.904;2022-12-29T03:29:41;99137.25;;;11.16;100.00
10638;BME280;47007;49.252;8.904;2022-12-29T03:30:28;99133.56;;;11.17;100.00
10638;BME280;47007;49.252;8.904;2022-12-29T03:31:12;99126.03;;;11.07;100.00
10638;BME280;47007;49.252;8.904;2022-12-29T03:31:57;99134.19;;;11.12;100.00
10638;BME280;47007;49.252;8.904;2022-12-29T03:32:48;99114.59;;;11.00;100.00
10638;BME280;47007;49.252;8.904;2022-12-29T03:33:31;99124.19;;;11.08;100.00
10638;BME280;47007;49.252;8.904;2022-12-29T03:34:18;99132.56;;;11.11;100.00
10638;BME280;47007;49.252;8.904;2022-12-29T03:35:02;99132.78;;;11.10;100.00
10638;BME280;47007;49.252;8.904;2022-12-29T03:35:47;99115.00;;;11.04;100.00
10638;BME280;47007;49.252;8.904;2022-12-29T03:36:36;99138.88;;;11.17;100.00
10638;BME280;47007;49.252;8.904;2022-12-29T03:37:24;99089.94;;;11.00;100.00
10638;BME280;47007;49.252;8.904;2022-12-29T03:38:18;99121.75;;;11.20;100.00
10638;BME280;47007;49.252;8.904;2022-12-29T03:39:22;99117.25;;;11.27;100.00
10638;BME280;47007;49.252;8.904;2022-12-29T03:40:05;99116.44;;;11.26;100.00
10638;BME280;47007;49.252;8.904;2022-12-29T03:40:51;99104.19;;;11.19;100.00
10638;BME280;47007;49.252;8.904;2022-12-29T03:41:34;99136.84;;;11.26;100.00
10638;BME280;47007;49.252;8.904;2022-12-29T03:42:20;99122.97;;;11.30;100.00
10638;BME280;47007;49.252;8.904;2022-12-29T03:43:03;99116.25;;;11.21;100.00
10638;BME280;47007;49.252;8.904;2022-12-29T03:43:47;99124.81;;;11.30;100.00
10638;BME280;47007;49.252;8.904;2022-12-29T03:44:34;99052.81;;;10.87;100.00
10638;BME280;47007;49.252;8.904;2022-12-29T03:45:17;99130.72;;;11.32;100.00
10638;BME280;47007;49.252;8.904;2022-12-29T03:45:59;99114.00;;;11.31;100.00
10638;BME280;47007;49.252;8.904;2022-12-29T03:46:43;99130.72;;;11.32;100.00
10638;BME280;47007;49.252;8.904;2022-12-29T03:47:25;99124.19;;;11.34;100.00
10638;BME280;47007;49.252;8.904;2022-12-29T03:48:07;99109.50;;;11.25;100.00
10638;BME280;47007;49.252;8.904;2022-12-29T03:48:51;99127.66;;;11.35;100.00
10638;BME280;47007;49.252;8.904;2022-12-29T03:49:33;99115.84;;;11.24;100.00
10638;BME280;47007;49.252;8.904;2022-12-29T03:50:17;99130.31;;;11.35;100.00
10638;BME280;47007;49.252;8.904;2022-12-29T03:50:59;99120.72;;;11.34;100.00
10638;BME280;47007;49.252;8.904;2022-12-29T03:51:41;99092.56;;;11.20;100.00
10638;BME280;47007;49.252;8.904;2022-12-29T03:52:23;99130.72;;;11.45;100.00
10638;BME280;47007;49.252;8.904;2022-12-29T03:53:07;99118.69;;;11.49;100.00
10638;BME280;47007;49.252;8.904;2022-12-29T03:53:48;99121.72;;;11.52;100.00
10638;BME280;47007;49.252;8.904;2022-12-29T03:54:31;99125.00;;;11.55;100.00
10638;BME280;47007;49.252;8.904;2022-12-29T03:55:12;99114.97;;;11.57;100.00
10638;BME280;47007;49.252;8.904;2022-12-29T03:55:55;99125.41;;;11.58;100.00
10638;BME280;47007;49.252;8.904;2022-12-29T03:56:39;99121.09;;;11.57;100.00
10638;BME280;47007;49.252;8.904;2022-12-29T03:57:22;99111.31;;;11.58;100.00
10638;BME280;47007;49.252;8.904;2022-12-29T03:58:29;99102.31;;;11.52;100.00
10638;BME280;47007;49.252;8.904;2022-12-29T03:59:20;99047.25;;;11.28;100.00
10638;BME280;47007;49.252;8.904;2022-12-29T04:00:05;99097.84;;;11.52;100.00
10638;BME280;47007;49.252;8.904;2022-12-29T04:00:56;99106.00;;;11.58;100.00
10638;BME280;47007;49.252;8.904;2022-12-29T04:01:38;99100.25;;;11.67;100.00
10638;BME280;47007;49.252;8.904;2022-12-29T04:02:21;99111.69;;;11.68;100.00
10638;BME280;47007;49.252;8.904;2022-12-29T04:03:06;99104.75;;;11.67;100.00
10638;BME280;47007;49.252;8.904;2022-12-29T04:03:48;99113.13;;;11.70;100.00
10638;BME280;47007;49.252;8.904;2022-12-29T04:04:30;99098.00;;;11.64;100.00
10638;BME280;47007;49.252;8.904;2022-12-29T04:05:12;99077.03;;;11.49;100.00
10638;BME280;47007;49.252;8.904;2022-12-29T04:05:54;99110.69;;;11.69;100.00
10638;BME280;47007;49.252;8.904;2022-12-29T04:06:36;99091.72;;;11.59;100.00
10638;BME280;47007;49.252;8.904;2022-12-29T04:07:20;99092.69;;;11.64;100.00
10638;BME280;47007;49.252;8.904;2022-12-29T04:08:05;99094.94;;;11.67;100.00
10638;BME280;47007;49.252;8.904;2022-12-29T04:08:49;99101.69;;;11.70;100.00
10638;BME280;47007;49.252;8.904;2022-12-29T04:09:31;99093.13;;;11.68;100.00
10638;BME280;47007;49.252;8.904;2022-12-29T04:10:13;99037.88;;;11.32;100.00
10638;BME280;47007;49.252;8.904;2022-12-29T04:10:55;99068.44;;;11.54;100.00
10638;BME280;47007;49.252;8.904;2022-12-29T04:11:37;99100.06;;;11.62;100.00
10638;BME280;47007;49.252;8.904;2022-12-29T04:12:19;99101.91;;;11.62;100.00
10638;BME280;47007;49.252;8.904;2022-12-29T04:13:01;99073.56;;;11.49;100.00
10638;BME280;47007;49.252;8.904;2022-12-29T04:13:42;99090.50;;;11.61;100.00
10638;BME280;47007;49.252;8.904;2022-12-29T04:14:28;99072.09;;;11.53;100.00
10638;BME280;47007;49.252;8.904;2022-12-29T04:15:10;99081.47;;;11.62;100.00
10638;BME280;47007;49.252;8.904;2022-12-29T04:15:52;99100.47;;;11.72;100.00
10638;BME280;47007;49.252;8.904;2022-12-29T04:16:34;99102.09;;;11.73;100.00
10638;BME280;47007;49.252;8.904;2022-12-29T04:17:18;99086.38;;;11.72;100.00
10638;BME280;47007;49.252;8.904;2022-12-29T04:18:02;99093.72;;;11.76;100.00
10638;BME280;47007;49.252;8.904;2022-12-29T04:18:44;99098.00;;;11.77;100.00
10638;BME280;47007;49.252;8.904;2022-12-29T04:19:26;99095.78;;;11.74;100.00
10638;BME280;47007;49.252;8.904;2022-12-29T04:20:09;99062.53;;;11.59;100.00
10638;BME280;47007;49.252;8.904;2022-12-29T04:21:11;99103.72;;;11.81;100.00
10638;BME280;47007;49.252;8.904;2022-12-29T04:21:55;99083.50;;;11.73;100.00
10638;BME280;47007;49.252;8.904;2022-12-29T04:22:37;99095.53;;;11.89;100.00
10638;BME280;47007;49.252;8.904;2022-12-29T04:23:19;99105.53;;;11.94;100.00
10638;BME280;47007;49.252;8.904;2022-12-29T04:24:00;99109.41;;;11.98;100.00
10638;BME280;47007;49.252;8.904;2022-12-29T04:24:42;99091.19;;;12.01;100.00
10638;BME280;47007;49.252;8.904;2022-12-29T04:25:26;99095.88;;;12.06;100.00
10638;BME280;47007;49.252;8.904;2022-12-29T04:26:08;99091.41;;;12.00;100.00
10638;BME280;47007;49.252;8.904;2022-12-29T04:27:03;99111.16;;;12.17;100.00
10638;BME280;47007;49.252;8.904;2022-12-29T04:28:00;99090.53;;;12.12;100.00
10638;BME280;47007;49.252;8.904;2022-12-29T04:29:07;99093.59;;;12.22;100.00
10638;BME280;47007;49.252;8.904;2022-12-29T04:30:10;99067.03;;;12.16;100.00
10638;BME280;47007;49.252;8.904;2022-12-29T04:31:18;99095.78;;;12.26;100.00
10638;BME280;47007;49.252;8.904;2022-12-29T04:32:00;99103.13;;;12.30;100.00
10638;BME280;47007;49.252;8.904;2022-12-29T04:32:44;99099.47;;;12.31;100.00
10638;BME280;47007;49.252;8.904;2022-12-29T04:33:25;99093.13;;;12.32;100.00
10638;BME280;47007;49.252;8.904;2022-12-29T04:34:07;99099.25;;;12.33;100.00
10638;BME280;47007;49.252;8.904;2022-12-29T04:34:49;99099.03;;;12.34;100.00
10638;BME280;47007;49.252;8.904;2022-12-29T04:35:32;99097.41;;;12.33;100.00
10638;BME280;47007;49.252;8.904;2022-12-29T04:36:14;99091.69;;;12.30;100.00
10638;BME280;47007;49.252;8.904;2022-12-29T04:36:59;99057.84;;;12.12;100.00
10638;BME280;47007;49.252;8.904;2022-12-29T04:37:42;99078.22;;;12.24;100.00